sensor_id;sensor_type;location;lat;lon;timestamp;P1;durP1;ratioP1;P2;durP2;ratioP2
1467;SDS011;727;48.892;9.544;2022-09-09T00:01:37;3.93;;;1.77;;
1467;SDS011;727;48.892;9.544;2022-09-09T00:04:13;2.40;;;1.67;;
1467;SDS011;727;48.892;9.544;2022-09-09T00:06:49;2.80;;;2.00;;
1467;SDS011;727;48.892;9.544;2022-09-09T00:09:24;4.30;;;1.90;;
1467;SDS011;727;48.892;9.544;2022-09-09T00:11:54;1.77;;;1.63;;
1467;SDS011;727;48.892;9.544;2022-09-09T00:14:29;1.93;;;1.83;;
1467;SDS011;727;48.892;9.544;2022-09-09T00:17:04;3.27;;;1.87;;
1467;SDS011;727;48.892;9.544;2022-09-09T00:19:39;4.03;;;2.47;;
1467;SDS011;727;48.892;9.544;2022-09-09T00:22:17;2.63;;;1.60;;
1467;SDS011;727;48.892;9.544;2022-09-09T00:24:46;2.07;;;1.70;;
1467;SDS011;727;48.892;9.544;2022-09-09T00:27:16;2.00;;;1.90;;
1467;SDS011;727;48.892;9.544;2022-09-09T00:29:53;2.50;;;1.83;;
1467;SDS011;727;48.892;9.544;2022-09-09T00:32:24;3.30;;;2.00;;
1467;SDS011;727;48.892;9.544;2022-09-09T00:34:56;3.83;;;2.20;;
1467;SDS011;727;48.892;9.544;2022-09-09T00:37:29;4.93;;;2.37;;
1467;SDS011;727;48.892;9.544;2022-09-09T00:39:59;3.23;;;2.40;;
1467;SDS011;727;48.892;9.544;2022-09-09T00:42:31;2.63;;;1.80;;
1467;SDS011;727;48.892;9.544;2022-09-09T00:45:10;1.80;;;1.63;;
1467;SDS011;727;48.892;9.544;2022-09-09T00:47:46;5.07;;;2.20;;
1467;SDS011;727;48.892;9.544;2022-09-09T00:50:26;5.03;;;2.43;;
1467;SDS011;727;48.892;9.544;2022-09-09T00:53:09;5.70;;;4.10;;
1467;SDS011;727;48.892;9.544;2022-09-09T00:55:52;2.37;;;1.93;;
1467;SDS011;727;48.892;9.544;2022-09-09T00:58:25;4.60;;;2.13;;
1467;SDS011;727;48.892;9.544;2022-09-09T01:00:53;3.53;;;2.20;;
1467;SDS011;727;48.892;9.544;2022-09-09T01:03:29;7.00;;;3.03;;
1467;SDS011;727;48.892;9.544;2022-09-09T01:06:01;2.10;;;2.00;;
1467;SDS011;727;48.892;9.544;2022-09-09T01:11:25;5.13;;;1.83;;
1467;SDS011;727;48.892;9.544;2022-09-09T01:13:56;3.23;;;1.77;;
1467;SDS011;727;48.892;9.544;2022-09-09T01:16:28;3.13;;;2.10;;
1467;SDS011;727;48.892;9.544;2022-09-09T01:18:57;3.10;;;2.20;;
1467;SDS011;727;48.892;9.544;2022-09-09T01:21:27;3.17;;;1.87;;
1467;SDS011;727;48.892;9.544;2022-09-09T01:26:54;3.07;;;2.27;;
1467;SDS011;727;48.892;9.544;2022-09-09T01:29:24;2.60;;;2.13;;
1467;SDS011;727;48.892;9.544;2022-09-09T01:31:52;4.00;;;2.03;;
1467;SDS011;727;48.892;9.544;2022-09-09T01:34:21;2.90;;;2.10;;
1467;SDS011;727;48.892;9.544;2022-09-09T01:36:49;2.40;;;1.97;;
1467;SDS011;727;48.892;9.544;2022-09-09T01:39:22;3.37;;;1.80;;
1467;SDS011;727;48.892;9.544;2022-09-09T01:41:49;8.77;;;2.13;;
1467;SDS011;727;48.892;9.544;2022-09-09T01:44:17;4.30;;;2.57;;
1467;SDS011;727;48.892;9.544;2022-09-09T01:46:45;2.87;;;2.33;;
1467;SDS011;727;48.892;9.544;2022-09-09T01:49:12;2.50;;;2.00;;
1467;SDS011;727;48.892;9.544;2022-09-09T01:51:39;3.83;;;1.83;;
1467;SDS011;727;48.892;9.544;2022-09-09T01:54:07;3.20;;;2.07;;
1467;SDS011;727;48.892;9.544;2022-09-09T01:56:36;2.50;;;1.80;;
1467;SDS011;727;48.892;9.544;2022-09-09T01:59:14;2.10;;;1.80;;
1467;SDS011;727;48.892;9.544;2022-09-09T02:01:59;11.90;;;3.37;;
1467;SDS011;727;48.892;9.544;2022-09-09T02:04:36;4.50;;;2.03;;
1467;SDS011;727;48.892;9.544;2022-09-09T02:07:07;4.87;;;1.90;;
1467;SDS011;727;48.892;9.544;2022-09-09T02:09:42;3.43;;;1.73;;
1467;SDS011;727;48.892;9.544;2022-09-09T02:12:11;2.13;;;2.03;;
1467;SDS011;727;48.892;9.544;2022-09-09T02:14:46;1.60;;;1.50;;
1467;SDS011;727;48.892;9.544;2022-09-09T02:17:16;3.10;;;1.90;;
1467;SDS011;727;48.892;9.544;2022-09-09T02:19:49;3.17;;;2.00;;
1467;SDS011;727;48.892;9.544;2022-09-09T02:22:20;3.03;;;1.90;;
1467;SDS011;727;48.892;9.544;2022-09-09T02:24:50;2.30;;;2.10;;
1467;SDS011;727;48.892;9.544;2022-09-09T02:27:20;1.80;;;1.70;;
1467;SDS011;727;48.892;9.544;2022-09-09T02:29:50;3.50;;;1.80;;
1467;SDS011;727;48.892;9.544;2022-09-09T02:32:20;1.90;;;1.67;;
1467;SDS011;727;48.892;9.544;2022-09-09T02:34:49;1.83;;;1.67;;
1467;SDS011;727;48.892;9.544;2022-09-09T02:37:20;3.30;;;2.10;;
1467;SDS011;727;48.892;9.544;2022-09-09T02:39:53;7.80;;;2.57;;
1467;SDS011;727;48.892;9.544;2022-09-09T02:42:20;9.63;;;1.87;;
1467;SDS011;727;48.892;9.544;2022-09-09T02:44:47;2.80;;;1.70;;
1467;SDS011;727;48.892;9.544;2022-09-09T02:47:18;4.90;;;2.13;;
1467;SDS011;727;48.892;9.544;2022-09-09T02:49:56;2.13;;;1.90;;
1467;SDS011;727;48.892;9.544;2022-09-09T02:52:30;7.07;;;1.80;;
1467;SDS011;727;48.892;9.544;2022-09-09T02:55:04;4.30;;;1.90;;
1467;SDS011;727;48.892;9.544;2022-09-09T02:57:35;2.37;;;1.80;;
1467;SDS011;727;48.892;9.544;2022-09-09T03:00:04;3.33;;;2.23;;
1467;SDS011;727;48.892;9.544;2022-09-09T03:02:33;2.63;;;2.43;;
1467;SDS011;727;48.892;9.544;2022-09-09T03:05:00;3.47;;;2.40;;
1467;SDS011;727;48.892;9.544;2022-09-09T03:07:27;3.87;;;2.77;;
1467;SDS011;727;48.892;9.544;2022-09-09T03:09:53;6.97;;;2.67;;
1467;SDS011;727;48.892;9.544;2022-09-09T03:12:20;1.93;;;1.80;;
1467;SDS011;727;48.892;9.544;2022-09-09T03:14:47;4.97;;;2.10;;
1467;SDS011;727;48.892;9.544;2022-09-09T03:17:13;2.40;;;1.93;;
1467;SDS011;727;48.892;9.544;2022-09-09T03:19:42;4.87;;;2.60;;
1467;SDS011;727;48.892;9.544;2022-09-09T03:22:09;5.83;;;2.00;;
1467;SDS011;727;48.892;9.544;2022-09-09T03:24:36;6.60;;;2.03;;
1467;SDS011;727;48.892;9.544;2022-09-09T03:27:03;3.17;;;2.07;;
1467;SDS011;727;48.892;9.544;2022-09-09T03:29:30;3.30;;;1.63;;
1467;SDS011;727;48.892;9.544;2022-09-09T03:31:57;5.03;;;1.80;;
1467;SDS011;727;48.892;9.544;2022-09-09T03:34:24;2.97;;;1.93;;
1467;SDS011;727;48.892;9.544;2022-09-09T03:36:52;1.80;;;1.67;;
1467;SDS011;727;48.892;9.544;2022-09-09T03:39:19;2.67;;;1.70;;
1467;SDS011;727;48.892;9.544;2022-09-09T03:41:46;4.37;;;2.57;;
1467;SDS011;727;48.892;9.544;2022-09-09T03:44:13;3.57;;;1.67;;
1467;SDS011;727;48.892;9.544;2022-09-09T03:46:40;2.90;;;2.10;;
1467;SDS011;727;48.892;9.544;2022-09-09T03:49:06;1.90;;;1.50;;
1467;SDS011;727;48.892;9.544;2022-09-09T03:51:35;2.13;;;1.93;;
1467;SDS011;727;48.892;9.544;2022-09-09T03:54:04;3.13;;;1.83;;
1467;SDS011;727;48.892;9.544;2022-09-09T03:56:33;7.50;;;3.10;;
1467;SDS011;727;48.892;9.544;2022-09-09T03:59:00;3.63;;;2.43;;
1467;SDS011;727;48.892;9.544;2022-09-09T04:01:27;4.40;;;2.40;;
1467;SDS011;727;48.892;9.544;2022-09-09T04:03:54;3.50;;;2.83;;
1467;SDS011;727;48.892;9.544;2022-09-09T04:06:23;3.30;;;2.40;;
1467;SDS011;727;48.892;9.544;2022-09-09T04:08:50;4.30;;;2.97;;
1467;SDS011;727;48.892;9.544;2022-09-09T04:11:19;5.07;;;3.70;;
1467;SDS011;727;48.892;9.544;2022-09-09T04:13:46;2.70;;;2.50;;
1467;SDS011;727;48.892;9.544;2022-09-09T04:16:12;2.90;;;2.60;;
1467;SDS011;727;48.892;9.544;2022-09-09T04:18:39;4.50;;;2.37;;
1467;SDS011;727;48.892;9.544;2022-09-09T04:21:07;2.90;;;2.00;;
1467;SDS011;727;48.892;9.544;2022-09-09T04:23:35;10.97;;;3.23;;
1467;SDS011;727;48.892;9.544;2022-09-09T04:26:02;6.10;;;2.47;;
1467;SDS011;727;48.892;9.544;2022-09-09T04:28:32;3.50;;;2.87;;
1467;SDS011;727;48.892;9.544;2022-09-09T04:31:04;3.80;;;2.40;;
1467;SDS011;727;48.892;9.544;2022-09-09T04:33:32;2.80;;;2.20;;
1467;SDS011;727;48.892;9.544;2022-09-09T04:35:59;1.73;;;1.63;;
1467;SDS011;727;48.892;9.544;2022-09-09T04:38:26;3.27;;;2.33;;
1467;SDS011;727;48.892;9.544;2022-09-09T04:40:54;3.90;;;2.27;;
1467;SDS011;727;48.892;9.544;2022-09-09T04:43:21;5.70;;;2.83;;
1467;SDS011;727;48.892;9.544;2022-09-09T04:45:51;3.27;;;2.30;;
1467;SDS011;727;48.892;9.544;2022-09-09T04:48:18;2.73;;;2.10;;
1467;SDS011;727;48.892;9.544;2022-09-09T04:50:53;4.73;;;2.63;;
1467;SDS011;727;48.892;9.544;2022-09-09T04:53:20;4.97;;;2.50;;
1467;SDS011;727;48.892;9.544;2022-09-09T04:55:47;3.47;;;2.27;;
1467;SDS011;727;48.892;9.544;2022-09-09T04:58:14;2.90;;;2.20;;
1467;SDS011;727;48.892;9.544;2022-09-09T05:00:41;1.90;;;1.80;;
1467;SDS011;727;48.892;9.544;2022-09-09T05:03:09;2.93;;;2.57;;
1467;SDS011;727;48.892;9.544;2022-09-09T05:05:36;2.73;;;2.50;;
1467;SDS011;727;48.892;9.544;2022-09-09T05:08:03;1.97;;;1.70;;
1467;SDS011;727;48.892;9.544;2022-09-09T05:10:31;2.20;;;1.90;;
1467;SDS011;727;48.892;9.544;2022-09-09T05:12:58;5.83;;;2.60;;
1467;SDS011;727;48.892;9.544;2022-09-09T05:15:25;5.60;;;1.87;;
1467;SDS011;727;48.892;9.544;2022-09-09T05:17:52;4.13;;;2.40;;
1467;SDS011;727;48.892;9.544;2022-09-09T05:20:23;3.17;;;2.27;;
1467;SDS011;727;48.892;9.544;2022-09-09T05:22:52;5.83;;;2.60;;
1467;SDS011;727;48.892;9.544;2022-09-09T05:25:18;2.50;;;1.90;;
1467;SDS011;727;48.892;9.544;2022-09-09T05:27:47;2.00;;;1.80;;
1467;SDS011;727;48.892;9.544;2022-09-09T05:30:14;4.67;;;2.10;;
1467;SDS011;727;48.892;9.544;2022-09-09T05:32:41;2.87;;;2.67;;
1467;SDS011;727;48.892;9.544;2022-09-09T05:35:08;5.43;;;2.60;;
1467;SDS011;727;48.892;9.544;2022-09-09T05:37:36;2.27;;;2.03;;
1467;SDS011;727;48.892;9.544;2022-09-09T05:40:03;5.60;;;2.07;;
1467;SDS011;727;48.892;9.544;2022-09-09T05:42:30;7.00;;;2.90;;
1467;SDS011;727;48.892;9.544;2022-09-09T05:44:57;4.80;;;2.30;;
1467;SDS011;727;48.892;9.544;2022-09-09T05:47:24;3.17;;;2.20;;
1467;SDS011;727;48.892;9.544;2022-09-09T05:49:52;2.10;;;2.00;;
1467;SDS011;727;48.892;9.544;2022-09-09T05:52:19;1.87;;;1.60;;
1467;SDS011;727;48.892;9.544;2022-09-09T05:54:47;5.87;;;2.07;;
1467;SDS011;727;48.892;9.544;2022-09-09T05:57:14;1.53;;;1.50;;
1467;SDS011;727;48.892;9.544;2022-09-09T05:59:40;4.67;;;3.03;;
1467;SDS011;727;48.892;9.544;2022-09-09T06:02:07;3.70;;;1.23;;
1467;SDS011;727;48.892;9.544;2022-09-09T06:04:34;5.20;;;2.10;;
1467;SDS011;727;48.892;9.544;2022-09-09T06:07:01;2.20;;;1.20;;
1467;SDS011;727;48.892;9.544;2022-09-09T06:09:28;1.70;;;1.60;;
1467;SDS011;727;48.892;9.544;2022-09-09T06:11:56;4.80;;;1.90;;
1467;SDS011;727;48.892;9.544;2022-09-09T06:22:19;2.57;;;1.80;;
1467;SDS011;727;48.892;9.544;2022-09-09T06:24:46;3.63;;;2.67;;
1467;SDS011;727;48.892;9.544;2022-09-09T06:27:14;3.03;;;2.60;;
1467;SDS011;727;48.892;9.544;2022-09-09T06:29:40;3.63;;;2.20;;
1467;SDS011;727;48.892;9.544;2022-09-09T06:32:07;2.20;;;2.00;;
1467;SDS011;727;48.892;9.544;2022-09-09T06:34:34;3.37;;;2.40;;
1467;SDS011;727;48.892;9.544;2022-09-09T06:37:01;2.70;;;2.20;;
1467;SDS011;727;48.892;9.544;2022-09-09T06:39:28;5.70;;;2.17;;
1467;SDS011;727;48.892;9.544;2022-09-09T06:41:55;3.20;;;2.00;;
1467;SDS011;727;48.892;9.544;2022-09-09T06:44:24;9.00;;;2.10;;
1467;SDS011;727;48.892;9.544;2022-09-09T06:46:51;2.97;;;2.23;;
1467;SDS011;727;48.892;9.544;2022-09-09T06:49:18;3.83;;;2.13;;
1467;SDS011;727;48.892;9.544;2022-09-09T06:51:45;2.90;;;2.07;;
1467;SDS011;727;48.892;9.544;2022-09-09T06:54:11;2.83;;;2.50;;
1467;SDS011;727;48.892;9.544;2022-09-09T06:56:39;4.90;;;2.50;;
1467;SDS011;727;48.892;9.544;2022-09-09T06:59:07;3.63;;;2.00;;
1467;SDS011;727;48.892;9.544;2022-09-09T07:01:36;6.83;;;2.73;;
1467;SDS011;727;48.892;9.544;2022-09-09T07:04:05;4.23;;;2.00;;
1467;SDS011;727;48.892;9.544;2022-09-09T07:06:34;2.67;;;2.20;;
1467;SDS011;727;48.892;9.544;2022-09-09T07:09:03;3.10;;;2.70;;
1467;SDS011;727;48.892;9.544;2022-09-09T07:11:31;2.97;;;2.10;;
1467;SDS011;727;48.892;9.544;2022-09-09T07:14:00;4.60;;;1.63;;
1467;SDS011;727;48.892;9.544;2022-09-09T07:16:27;2.30;;;2.10;;
1467;SDS011;727;48.892;9.544;2022-09-09T07:18:55;2.50;;;1.53;;
1467;SDS011;727;48.892;9.544;2022-09-09T07:21:23;3.10;;;2.53;;
1467;SDS011;727;48.892;9.544;2022-09-09T07:23:51;2.10;;;1.90;;
1467;SDS011;727;48.892;9.544;2022-09-09T07:26:18;5.23;;;1.80;;
1467;SDS011;727;48.892;9.544;2022-09-09T07:28:46;2.90;;;2.57;;
1467;SDS011;727;48.892;9.544;2022-09-09T07:31:14;2.67;;;2.37;;
1467;SDS011;727;48.892;9.544;2022-09-09T07:33:42;4.63;;;1.70;;
1467;SDS011;727;48.892;9.544;2022-09-09T07:36:12;3.00;;;1.73;;
1467;SDS011;727;48.892;9.544;2022-09-09T07:38:40;5.37;;;2.03;;
1467;SDS011;727;48.892;9.544;2022-09-09T07:41:09;3.67;;;2.07;;
1467;SDS011;727;48.892;9.544;2022-09-09T07:43:38;2.40;;;1.70;;
1467;SDS011;727;48.892;9.544;2022-09-09T07:46:05;3.67;;;1.50;;
1467;SDS011;727;48.892;9.544;2022-09-09T07:48:33;3.07;;;1.50;;
1467;SDS011;727;48.892;9.544;2022-09-09T07:51:04;3.33;;;1.50;;
1467;SDS011;727;48.892;9.544;2022-09-09T07:53:34;3.00;;;2.33;;
1467;SDS011;727;48.892;9.544;2022-09-09T07:56:03;4.40;;;1.90;;
1467;SDS011;727;48.892;9.544;2022-09-09T07:58:31;1.60;;;1.50;;
1467;SDS011;727;48.892;9.544;2022-09-09T08:00:58;5.10;;;1.60;;
1467;SDS011;727;48.892;9.544;2022-09-09T08:03:25;5.70;;;2.33;;
1467;SDS011;727;48.892;9.544;2022-09-09T08:05:52;1.57;;;1.47;;
1467;SDS011;727;48.892;9.544;2022-09-09T08:08:18;1.60;;;1.50;;
1467;SDS011;727;48.892;9.544;2022-09-09T08:10:46;6.30;;;1.60;;
1467;SDS011;727;48.892;9.544;2022-09-09T08:13:13;1.60;;;1.50;;
1467;SDS011;727;48.892;9.544;2022-09-09T08:15:40;2.27;;;1.40;;
1467;SDS011;727;48.892;9.544;2022-09-09T08:18:08;3.27;;;1.83;;
1467;SDS011;727;48.892;9.544;2022-09-09T08:20:35;7.77;;;1.90;;
1467;SDS011;727;48.892;9.544;2022-09-09T08:23:03;2.27;;;1.33;;
1467;SDS011;727;48.892;9.544;2022-09-09T08:25:30;1.77;;;1.33;;
1467;SDS011;727;48.892;9.544;2022-09-09T08:28:02;1.80;;;1.47;;
1467;SDS011;727;48.892;9.544;2022-09-09T08:30:29;4.37;;;1.30;;
1467;SDS011;727;48.892;9.544;2022-09-09T08:32:56;3.30;;;1.53;;
1467;SDS011;727;48.892;9.544;2022-09-09T08:35:22;3.00;;;1.80;;
1467;SDS011;727;48.892;9.544;2022-09-09T08:37:53;7.23;;;1.40;;
1467;SDS011;727;48.892;9.544;2022-09-09T08:40:21;1.50;;;1.20;;
1467;SDS011;727;48.892;9.544;2022-09-09T08:42:52;2.57;;;1.20;;
1467;SDS011;727;48.892;9.544;2022-09-09T08:45:28;1.43;;;1.10;;
1467;SDS011;727;48.892;9.544;2022-09-09T08:48:03;2.57;;;2.03;;
1467;SDS011;727;48.892;9.544;2022-09-09T08:50:40;5.70;;;1.60;;
1467;SDS011;727;48.892;9.544;2022-09-09T08:53:09;1.57;;;1.10;;
1467;SDS011;727;48.892;9.544;2022-09-09T08:55:42;3.70;;;1.80;;
1467;SDS011;727;48.892;9.544;2022-09-09T08:58:13;2.23;;;1.40;;
1467;SDS011;727;48.892;9.544;2022-09-09T09:00:50;2.10;;;1.60;;
1467;SDS011;727;48.892;9.544;2022-09-09T09:03:30;6.20;;;1.67;;
1467;SDS011;727;48.892;9.544;2022-09-09T09:06:08;4.37;;;1.80;;
1467;SDS011;727;48.892;9.544;2022-09-09T09:08:48;2.13;;;1.50;;
1467;SDS011;727;48.892;9.544;2022-09-09T09:11:23;3.07;;;1.43;;
1467;SDS011;727;48.892;9.544;2022-09-09T09:13:51;5.93;;;2.77;;
1467;SDS011;727;48.892;9.544;2022-09-09T09:16:26;4.70;;;1.80;;
1467;SDS011;727;48.892;9.544;2022-09-09T09:18:58;7.57;;;1.60;;
1467;SDS011;727;48.892;9.544;2022-09-09T09:21:28;1.77;;;1.47;;
1467;SDS011;727;48.892;9.544;2022-09-09T09:24:03;1.70;;;1.43;;
1467;SDS011;727;48.892;9.544;2022-09-09T09:26:34;2.73;;;1.23;;
1467;SDS011;727;48.892;9.544;2022-09-09T09:29:03;2.43;;;1.37;;
1467;SDS011;727;48.892;9.544;2022-09-09T09:31:41;3.17;;;1.40;;
1467;SDS011;727;48.892;9.544;2022-09-09T09:34:21;3.43;;;1.33;;
1467;SDS011;727;48.892;9.544;2022-09-09T09:36:59;1.40;;;1.20;;
1467;SDS011;727;48.892;9.544;2022-09-09T09:39:33;3.13;;;1.47;;
1467;SDS011;727;48.892;9.544;2022-09-09T09:42:16;5.67;;;1.70;;
1467;SDS011;727;48.892;9.544;2022-09-09T09:44:44;2.73;;;1.27;;
1467;SDS011;727;48.892;9.544;2022-09-09T09:47:14;1.67;;;1.20;;
1467;SDS011;727;48.892;9.544;2022-09-09T09:49:50;6.17;;;1.90;;
1467;SDS011;727;48.892;9.544;2022-09-09T09:52:21;4.93;;;2.13;;
1467;SDS011;727;48.892;9.544;2022-09-09T09:54:50;4.93;;;1.20;;
1467;SDS011;727;48.892;9.544;2022-09-09T09:57:18;2.63;;;1.30;;
1467;SDS011;727;48.892;9.544;2022-09-09T10:00:00;2.93;;;1.20;;
1467;SDS011;727;48.892;9.544;2022-09-09T10:05:18;8.63;;;4.20;;
1467;SDS011;727;48.892;9.544;2022-09-09T10:07:46;4.50;;;2.10;;
1467;SDS011;727;48.892;9.544;2022-09-09T10:10:27;3.83;;;1.80;;
1467;SDS011;727;48.892;9.544;2022-09-09T10:13:09;5.23;;;2.40;;
1467;SDS011;727;48.892;9.544;2022-09-09T10:15:43;5.07;;;1.43;;
1467;SDS011;727;48.892;9.544;2022-09-09T10:18:25;3.30;;;1.77;;
1467;SDS011;727;48.892;9.544;2022-09-09T10:21:07;4.90;;;1.80;;
1467;SDS011;727;48.892;9.544;2022-09-09T10:23:46;4.63;;;2.27;;
1467;SDS011;727;48.892;9.544;2022-09-09T10:26:29;3.40;;;1.80;;
1467;SDS011;727;48.892;9.544;2022-09-09T10:29:15;2.43;;;1.33;;
1467;SDS011;727;48.892;9.544;2022-09-09T10:31:53;2.63;;;1.17;;
1467;SDS011;727;48.892;9.544;2022-09-09T10:34:35;2.50;;;1.10;;
1467;SDS011;727;48.892;9.544;2022-09-09T10:37:22;2.57;;;1.40;;
1467;SDS011;727;48.892;9.544;2022-09-09T10:40:08;3.13;;;0.77;;
1467;SDS011;727;48.892;9.544;2022-09-09T10:42:49;2.87;;;0.90;;
1467;SDS011;727;48.892;9.544;2022-09-09T10:45:17;1.63;;;0.70;;
1467;SDS011;727;48.892;9.544;2022-09-09T10:48:00;1.77;;;0.93;;
1467;SDS011;727;48.892;9.544;2022-09-09T10:50:46;1.00;;;0.90;;
1467;SDS011;727;48.892;9.544;2022-09-09T10:53:21;2.00;;;1.00;;
1467;SDS011;727;48.892;9.544;2022-09-09T10:55:56;4.10;;;0.90;;
1467;SDS011;727;48.892;9.544;2022-09-09T10:58:28;2.70;;;1.00;;
1467;SDS011;727;48.892;9.544;2022-09-09T11:01:00;2.97;;;1.00;;
1467;SDS011;727;48.892;9.544;2022-09-09T11:03:34;4.30;;;1.00;;
1467;SDS011;727;48.892;9.544;2022-09-09T11:06:09;2.50;;;1.10;;
1467;SDS011;727;48.892;9.544;2022-09-09T11:08:41;1.43;;;1.07;;
1467;SDS011;727;48.892;9.544;2022-09-09T11:11:10;2.30;;;0.87;;
1467;SDS011;727;48.892;9.544;2022-09-09T11:13:44;3.50;;;1.67;;
1467;SDS011;727;48.892;9.544;2022-09-09T11:16:19;4.57;;;1.87;;
1467;SDS011;727;48.892;9.544;2022-09-09T11:18:50;2.17;;;1.23;;
1467;SDS011;727;48.892;9.544;2022-09-09T11:21:24;4.13;;;1.43;;
1467;SDS011;727;48.892;9.544;2022-09-09T11:23:55;2.93;;;1.63;;
1467;SDS011;727;48.892;9.544;2022-09-09T11:26:29;4.73;;;1.23;;
1467;SDS011;727;48.892;9.544;2022-09-09T11:32:09;3.10;;;1.20;;
1467;SDS011;727;48.892;9.544;2022-09-09T11:34:50;1.50;;;1.10;;
1467;SDS011;727;48.892;9.544;2022-09-09T11:40:17;4.17;;;1.33;;
1467;SDS011;727;48.892;9.544;2022-09-09T11:43:19;4.70;;;1.20;;
1467;SDS011;727;48.892;9.544;2022-09-09T11:45:51;1.50;;;1.40;;
1467;SDS011;727;48.892;9.544;2022-09-09T11:48:23;2.90;;;1.30;;
1467;SDS011;727;48.892;9.544;2022-09-09T11:51:00;3.70;;;1.20;;
1467;SDS011;727;48.892;9.544;2022-09-09T11:53:33;2.80;;;1.10;;
1467;SDS011;727;48.892;9.544;2022-09-09T11:56:08;2.20;;;1.00;;
1467;SDS011;727;48.892;9.544;2022-09-09T12:13:20;1.77;;;1.10;;
1467;SDS011;727;48.892;9.544;2022-09-09T12:15:49;5.90;;;1.50;;
1467;SDS011;727;48.892;9.544;2022-09-09T12:18:21;3.00;;;1.47;;
1467;SDS011;727;48.892;9.544;2022-09-09T12:20:52;6.17;;;1.40;;
1467;SDS011;727;48.892;9.544;2022-09-09T12:23:30;3.50;;;1.30;;
1467;SDS011;727;48.892;9.544;2022-09-09T12:26:20;6.33;;;1.30;;
1467;SDS011;727;48.892;9.544;2022-09-09T12:29:02;3.90;;;1.00;;
1467;SDS011;727;48.892;9.544;2022-09-09T12:31:39;2.30;;;1.60;;
1467;SDS011;727;48.892;9.544;2022-09-09T12:34:10;2.63;;;1.00;;
1467;SDS011;727;48.892;9.544;2022-09-09T12:36:41;5.80;;;1.00;;
1467;SDS011;727;48.892;9.544;2022-09-09T12:39:15;3.17;;;0.80;;
1467;SDS011;727;48.892;9.544;2022-09-09T12:41:53;3.40;;;0.90;;
1467;SDS011;727;48.892;9.544;2022-09-09T12:44:22;6.13;;;1.10;;
1467;SDS011;727;48.892;9.544;2022-09-09T12:46:49;3.30;;;1.10;;
1467;SDS011;727;48.892;9.544;2022-09-09T12:49:26;3.50;;;1.20;;
1467;SDS011;727;48.892;9.544;2022-09-09T12:51:59;3.80;;;1.10;;
1467;SDS011;727;48.892;9.544;2022-09-09T12:54:30;3.77;;;1.03;;
1467;SDS011;727;48.892;9.544;2022-09-09T12:56:58;2.03;;;0.90;;
1467;SDS011;727;48.892;9.544;2022-09-09T12:59:26;2.13;;;1.27;;
1467;SDS011;727;48.892;9.544;2022-09-09T13:02:01;2.03;;;1.10;;
1467;SDS011;727;48.892;9.544;2022-09-09T13:04:28;2.10;;;0.77;;
1467;SDS011;727;48.892;9.544;2022-09-09T13:07:04;2.40;;;1.33;;
1467;SDS011;727;48.892;9.544;2022-09-09T13:09:34;1.00;;;0.90;;
1467;SDS011;727;48.892;9.544;2022-09-09T13:12:02;1.97;;;0.90;;
1467;SDS011;727;48.892;9.544;2022-09-09T13:14:32;0.90;;;0.60;;
1467;SDS011;727;48.892;9.544;2022-09-09T13:17:03;2.80;;;1.20;;
1467;SDS011;727;48.892;9.544;2022-09-09T13:19:32;2.60;;;0.80;;
1467;SDS011;727;48.892;9.544;2022-09-09T13:22:10;3.07;;;0.93;;
1467;SDS011;727;48.892;9.544;2022-09-09T13:24:38;1.47;;;0.87;;
1467;SDS011;727;48.892;9.544;2022-09-09T13:27:20;2.70;;;1.00;;
1467;SDS011;727;48.892;9.544;2022-09-09T13:29:53;2.77;;;1.03;;
1467;SDS011;727;48.892;9.544;2022-09-09T13:32:21;2.23;;;0.83;;
1467;SDS011;727;48.892;9.544;2022-09-09T13:34:52;3.53;;;0.70;;
1467;SDS011;727;48.892;9.544;2022-09-09T13:37:22;1.33;;;0.77;;
1467;SDS011;727;48.892;9.544;2022-09-09T13:39:53;1.43;;;0.50;;
1467;SDS011;727;48.892;9.544;2022-09-09T13:42:25;2.70;;;0.87;;
1467;SDS011;727;48.892;9.544;2022-09-09T13:44:54;2.23;;;0.73;;
1467;SDS011;727;48.892;9.544;2022-09-09T13:47:26;1.47;;;0.80;;
1467;SDS011;727;48.892;9.544;2022-09-09T13:49:56;3.50;;;1.50;;
1467;SDS011;727;48.892;9.544;2022-09-09T13:52:23;4.10;;;1.17;;
1467;SDS011;727;48.892;9.544;2022-09-09T13:54:52;1.17;;;0.90;;
1467;SDS011;727;48.892;9.544;2022-09-09T13:57:21;1.43;;;0.77;;
1467;SDS011;727;48.892;9.544;2022-09-09T13:59:51;1.17;;;0.80;;
1467;SDS011;727;48.892;9.544;2022-09-09T14:02:19;4.10;;;0.87;;
1467;SDS011;727;48.892;9.544;2022-09-09T14:04:48;0.80;;;0.80;;
1467;SDS011;727;48.892;9.544;2022-09-09T14:07:16;2.93;;;0.70;;
1467;SDS011;727;48.892;9.544;2022-09-09T14:09:44;2.20;;;0.70;;
1467;SDS011;727;48.892;9.544;2022-09-09T14:12:15;2.97;;;1.83;;
1467;SDS011;727;48.892;9.544;2022-09-09T14:14:42;1.80;;;0.90;;
1467;SDS011;727;48.892;9.544;2022-09-09T14:17:10;1.00;;;0.90;;
1467;SDS011;727;48.892;9.544;2022-09-09T14:19:37;1.47;;;1.37;;
1467;SDS011;727;48.892;9.544;2022-09-09T14:22:03;0.73;;;0.73;;
1467;SDS011;727;48.892;9.544;2022-09-09T14:24:30;3.53;;;1.33;;
1467;SDS011;727;48.892;9.544;2022-09-09T14:26:58;3.80;;;0.93;;
1467;SDS011;727;48.892;9.544;2022-09-09T14:29:24;2.53;;;0.90;;
1467;SDS011;727;48.892;9.544;2022-09-09T14:31:51;1.10;;;0.90;;
1467;SDS011;727;48.892;9.544;2022-09-09T14:34:19;1.70;;;1.27;;
1467;SDS011;727;48.892;9.544;2022-09-09T14:36:46;1.17;;;0.70;;
1467;SDS011;727;48.892;9.544;2022-09-09T14:39:13;2.40;;;1.83;;
1467;SDS011;727;48.892;9.544;2022-09-09T14:41:39;1.13;;;0.93;;
1467;SDS011;727;48.892;9.544;2022-09-09T14:44:06;2.10;;;1.00;;
1467;SDS011;727;48.892;9.544;2022-09-09T14:46:33;2.00;;;0.90;;
1467;SDS011;727;48.892;9.544;2022-09-09T14:49:00;2.70;;;1.00;;
1467;SDS011;727;48.892;9.544;2022-09-09T14:51:28;1.70;;;0.93;;
1467;SDS011;727;48.892;9.544;2022-09-09T14:53:55;3.40;;;1.27;;
1467;SDS011;727;48.892;9.544;2022-09-09T14:56:24;0.70;;;0.70;;
1467;SDS011;727;48.892;9.544;2022-09-09T14:58:52;1.47;;;0.80;;
1467;SDS011;727;48.892;9.544;2022-09-09T15:01:20;2.50;;;0.70;;
1467;SDS011;727;48.892;9.544;2022-09-09T15:03:51;1.20;;;1.00;;
1467;SDS011;727;48.892;9.544;2022-09-09T15:06:18;2.90;;;1.00;;
1467;SDS011;727;48.892;9.544;2022-09-09T15:08:51;3.07;;;0.80;;
1467;SDS011;727;48.892;9.544;2022-09-09T15:11:21;0.77;;;0.70;;
1467;SDS011;727;48.892;9.544;2022-09-09T15:13:50;1.33;;;1.20;;
1467;SDS011;727;48.892;9.544;2022-09-09T15:16:18;2.83;;;1.00;;
1467;SDS011;727;48.892;9.544;2022-09-09T15:18:46;2.13;;;0.97;;
1467;SDS011;727;48.892;9.544;2022-09-09T15:21:17;1.80;;;1.10;;
1467;SDS011;727;48.892;9.544;2022-09-09T15:23:45;2.50;;;1.20;;
1467;SDS011;727;48.892;9.544;2022-09-09T15:26:13;3.67;;;0.87;;
1467;SDS011;727;48.892;9.544;2022-09-09T15:28:41;1.47;;;1.33;;
1467;SDS011;727;48.892;9.544;2022-09-09T15:31:09;3.80;;;1.07;;
1467;SDS011;727;48.892;9.544;2022-09-09T15:33:39;3.07;;;1.23;;
1467;SDS011;727;48.892;9.544;2022-09-09T15:36:13;0.70;;;0.67;;
1467;SDS011;727;48.892;9.544;2022-09-09T15:38:40;1.53;;;0.70;;
1467;SDS011;727;48.892;9.544;2022-09-09T15:41:08;1.47;;;0.70;;
1467;SDS011;727;48.892;9.544;2022-09-09T15:43:37;1.80;;;0.80;;
1467;SDS011;727;48.892;9.544;2022-09-09T15:46:08;2.67;;;1.03;;
1467;SDS011;727;48.892;9.544;2022-09-09T15:48:58;1.13;;;0.60;;
1467;SDS011;727;48.892;9.544;2022-09-09T15:51:30;0.90;;;0.77;;
1467;SDS011;727;48.892;9.544;2022-09-09T15:53:57;1.87;;;0.70;;
1467;SDS011;727;48.892;9.544;2022-09-09T15:56:24;2.17;;;0.87;;
1467;SDS011;727;48.892;9.544;2022-09-09T15:58:54;2.10;;;0.90;;
1467;SDS011;727;48.892;9.544;2022-09-09T16:01:22;1.40;;;0.83;;
1467;SDS011;727;48.892;9.544;2022-09-09T16:03:49;0.80;;;0.70;;
1467;SDS011;727;48.892;9.544;2022-09-09T16:06:16;1.63;;;0.90;;
1467;SDS011;727;48.892;9.544;2022-09-09T16:08:48;1.67;;;0.97;;
1467;SDS011;727;48.892;9.544;2022-09-09T16:11:17;2.73;;;1.00;;
1467;SDS011;727;48.892;9.544;2022-09-09T16:13:45;2.30;;;0.90;;
1467;SDS011;727;48.892;9.544;2022-09-09T16:16:15;2.43;;;1.20;;
1467;SDS011;727;48.892;9.544;2022-09-09T16:18:44;0.90;;;0.73;;
1467;SDS011;727;48.892;9.544;2022-09-09T16:21:13;1.93;;;0.80;;
1467;SDS011;727;48.892;9.544;2022-09-09T16:23:41;1.13;;;0.97;;
1467;SDS011;727;48.892;9.544;2022-09-09T16:26:09;2.57;;;0.80;;
1467;SDS011;727;48.892;9.544;2022-09-09T16:28:38;3.27;;;0.70;;